Canovelles, Spain
Current Conditions -  °F | °C
As of 8:30 AM on Friday 24 Oct 2014 (Local Time) from LELL Reporting Station
Few Clouds Few Clouds  
Wind Chill: 50°   Ceiling: Unl
Heat Index: 50°   Visibility: 6mi
Dew Point: 45°   Wind: 1mph
Humidity: 82%   Direction: NA
Pressure: 30"   Gusts: NA
Location:  41.62°N, 2.28°E
Report Text: LELL 240630Z VRB01KT 9999 FEW075 10/07 Q1016
Loading
Personal Weather Stations






























Interactive Weather Map
Tropical Storm Tracking
New forecast layout! Learn more

10-Day Weather Forecast

Advertisements
Track Severe Weather on mobile